createdAt,value
2023-05-16T00:01:03.810Z,15.40
2023-05-16T00:03:06.510Z,15.43
2023-05-16T00:05:10.599Z,15.80
2023-05-16T00:07:12.747Z,14.43
2023-05-16T00:09:14.875Z,15.90
2023-05-16T00:11:17.841Z,16.00
2023-05-16T00:13:25.008Z,15.27
2023-05-16T00:15:27.417Z,15.27
2023-05-16T00:17:29.445Z,16.27
2023-05-16T00:19:31.439Z,14.60
2023-05-16T00:21:33.672Z,15.00
2023-05-16T00:23:36.493Z,15.60
2023-05-16T00:25:38.606Z,14.23
2023-05-16T00:27:40.742Z,15.23
2023-05-16T00:29:44.488Z,13.17
2023-05-16T00:31:46.555Z,14.20
2023-05-16T00:33:48.625Z,14.70
2023-05-16T00:35:50.839Z,14.03
2023-05-16T00:37:53.413Z,15.20
2023-05-16T00:39:57.164Z,14.33
2023-05-16T00:41:59.162Z,14.73
2023-05-16T00:44:01.130Z,14.00
2023-05-16T00:46:03.672Z,14.47
2023-05-16T00:48:05.963Z,12.87
2023-05-16T00:50:08.551Z,14.40
2023-05-16T00:52:11.201Z,13.67
2023-05-16T00:54:13.612Z,11.30
2023-05-16T00:56:16.174Z,12.63
2023-05-16T00:58:18.699Z,11.30
2023-05-16T01:00:20.758Z,12.03
2023-05-16T01:02:22.931Z,11.70
2023-05-16T01:04:25.099Z,11.90
2023-05-16T01:06:27.209Z,11.87
2023-05-16T01:08:29.216Z,11.97
2023-05-16T01:10:48.357Z,12.17
2023-05-16T01:12:53.175Z,10.77
2023-05-16T01:15:07.453Z,12.20
2023-05-16T01:17:20.285Z,10.60
2023-05-16T01:19:44.028Z,10.00
2023-05-16T01:21:50.129Z,11.67
2023-05-16T01:24:14.934Z,11.20
2023-05-16T01:26:25.180Z,12.70
2023-05-16T01:28:28.204Z,10.80
2023-05-16T01:30:36.813Z,11.53
2023-05-16T01:32:38.846Z,12.10
2023-05-16T01:34:41.199Z,13.13
2023-05-16T01:37:12.788Z,14.30
2023-05-16T01:39:23.208Z,14.00
2023-05-16T01:41:29.087Z,13.50
2023-05-16T01:43:34.960Z,14.17
2023-05-16T01:45:40.411Z,15.80
2023-05-16T01:47:45.311Z,14.27
2023-05-16T01:49:57.446Z,15.17
2023-05-16T01:52:02.271Z,16.00
2023-05-16T01:54:11.502Z,15.20
2023-05-16T01:56:16.691Z,17.80
2023-05-16T01:58:24.108Z,17.80
2023-05-16T02:00:26.561Z,17.70
2023-05-16T02:02:28.561Z,18.17
2023-05-16T02:04:30.612Z,17.73
2023-05-16T02:06:32.751Z,18.57
2023-05-16T02:08:35.066Z,18.90
2023-05-16T02:10:37.097Z,19.50
2023-05-16T02:12:39.101Z,18.27
2023-05-16T02:14:41.090Z,19.73
2023-05-16T02:16:43.191Z,18.37
2023-05-16T02:18:45.937Z,17.40
2023-05-16T02:20:48.790Z,18.53
2023-05-16T02:22:51.183Z,17.10
2023-05-16T02:24:53.249Z,15.60
2023-05-16T02:26:55.290Z,16.10
2023-05-16T02:28:57.296Z,14.87
2023-05-16T02:31:00.500Z,15.87
2023-05-16T02:33:02.603Z,14.50
2023-05-16T02:35:06.009Z,14.50
2023-05-16T02:37:08.017Z,16.03
2023-05-16T02:39:10.357Z,14.17
2023-05-16T02:41:12.502Z,14.10
2023-05-16T02:43:14.770Z,13.70
2023-05-16T02:45:17.734Z,12.50
2023-05-16T02:47:19.960Z,13.60
2023-05-16T02:49:22.009Z,13.57
2023-05-16T02:51:27.458Z,11.73
2023-05-16T02:53:29.746Z,13.67
2023-05-16T02:55:31.765Z,13.00
2023-05-16T02:57:33.697Z,12.73
2023-05-16T02:59:36.343Z,12.33
2023-05-16T03:01:38.352Z,11.77
2023-05-16T03:03:40.661Z,12.47
2023-05-16T03:05:43.639Z,12.30
2023-05-16T03:07:45.750Z,12.53
2023-05-16T03:09:47.845Z,12.53
2023-05-16T03:11:49.972Z,11.90
2023-05-16T03:13:54.818Z,12.43
2023-05-16T03:15:56.934Z,13.60
2023-05-16T03:17:59.302Z,11.73
2023-05-16T03:20:01.466Z,11.70
2023-05-16T03:22:04.196Z,12.27
2023-05-16T03:24:06.791Z,12.80
2023-05-16T03:26:09.055Z,10.97
2023-05-16T03:28:12.333Z,12.10
2023-05-16T03:30:16.321Z,12.70
2023-05-16T03:32:18.489Z,12.60
2023-05-16T03:34:21.340Z,11.60
2023-05-16T03:36:24.527Z,11.40
2023-05-16T03:38:26.508Z,10.80
2023-05-16T03:40:28.653Z,11.23
2023-05-16T03:42:31.617Z,11.70
2023-05-16T03:44:33.786Z,11.10
2023-05-16T03:46:36.268Z,10.67
2023-05-16T03:48:38.408Z,10.50
2023-05-16T03:50:41.252Z,11.20
2023-05-16T03:52:43.983Z,10.87
2023-05-16T03:54:46.652Z,11.00
2023-05-16T03:56:48.692Z,10.90
2023-05-16T03:58:50.716Z,10.63
2023-05-16T04:00:52.771Z,10.80
2023-05-16T04:02:54.949Z,10.93
2023-05-16T04:04:57.005Z,10.33
2023-05-16T04:06:59.031Z,10.70
2023-05-16T04:09:01.028Z,9.97
2023-05-16T04:11:03.265Z,9.40
2023-05-16T04:13:05.384Z,9.63
2023-05-16T04:15:07.854Z,10.13
2023-05-16T04:17:11.168Z,9.30
2023-05-16T04:19:13.342Z,8.97
2023-05-16T04:21:15.548Z,8.23
2023-05-16T04:23:17.737Z,7.57
2023-05-16T04:25:19.910Z,7.33
2023-05-16T04:27:21.962Z,7.30
2023-05-16T04:29:23.916Z,7.63
2023-05-16T04:31:26.547Z,6.30
2023-05-16T04:33:28.599Z,6.97
2023-05-16T04:35:31.122Z,6.53
2023-05-16T04:37:33.139Z,6.67
2023-05-16T04:39:35.829Z,6.70
2023-05-16T04:41:37.797Z,6.93
2023-05-16T04:43:40.234Z,6.40
2023-05-16T04:45:43.062Z,6.50
2023-05-16T04:47:45.125Z,6.13
2023-05-16T04:49:47.052Z,5.70
2023-05-16T04:51:49.544Z,6.40
2023-05-16T04:53:51.619Z,6.07
2023-05-16T04:55:53.697Z,5.40
2023-05-16T04:57:55.835Z,7.20
2023-05-16T04:59:57.859Z,5.93
2023-05-16T05:01:59.956Z,6.20
2023-05-16T05:04:02.202Z,5.73
2023-05-16T05:06:04.550Z,5.50
2023-05-16T05:08:07.517Z,5.10
2023-05-16T05:10:10.963Z,5.53
2023-05-16T05:12:13.027Z,5.13
2023-05-16T05:14:15.070Z,5.17
2023-05-16T05:16:17.180Z,5.73
2023-05-16T05:18:19.280Z,6.10
2023-05-16T05:20:21.693Z,5.40
2023-05-16T05:22:24.036Z,5.00
2023-05-16T05:24:26.080Z,5.90
2023-05-16T05:26:29.038Z,5.57
2023-05-16T05:28:31.087Z,4.80
2023-05-16T05:30:33.151Z,5.30
2023-05-16T05:32:35.278Z,5.17
2023-05-16T05:34:37.538Z,4.70
2023-05-16T05:36:39.924Z,5.00
2023-05-16T05:38:42.078Z,5.07
2023-05-16T05:40:44.118Z,4.77
2023-05-16T05:42:47.267Z,4.80
2023-05-16T05:44:50.955Z,4.70
2023-05-16T05:46:53.091Z,4.80
2023-05-16T05:48:55.319Z,4.83
2023-05-16T05:50:57.358Z,4.33
2023-05-16T05:52:59.398Z,5.10
2023-05-16T05:55:01.478Z,4.80
2023-05-16T05:57:03.870Z,4.87
2023-05-16T05:59:05.901Z,4.47
2023-05-16T06:01:08.108Z,4.10
2023-05-16T06:03:10.916Z,4.20
2023-05-16T06:05:13.120Z,4.60
2023-05-16T06:07:16.209Z,4.50
2023-05-16T06:09:18.263Z,4.57
2023-05-16T06:11:20.347Z,4.77
2023-05-16T06:13:22.320Z,4.67
2023-05-16T06:15:25.814Z,4.83
2023-05-16T06:17:28.159Z,4.57
2023-05-16T06:19:30.164Z,5.23
2023-05-16T06:21:33.299Z,4.40
2023-05-16T06:23:35.999Z,5.20
2023-05-16T06:25:38.127Z,4.60
2023-05-16T06:27:40.124Z,5.00
2023-05-16T06:29:42.182Z,4.83
2023-05-16T06:31:44.792Z,6.10
2023-05-16T06:33:46.846Z,5.00
2023-05-16T06:35:48.862Z,5.27
2023-05-16T06:37:50.890Z,5.10
2023-05-16T06:39:52.920Z,4.70
2023-05-16T06:41:56.700Z,4.90
2023-05-16T06:43:59.012Z,5.10
2023-05-16T06:46:01.223Z,4.67
2023-05-16T06:48:03.710Z,5.33
2023-05-16T06:50:06.626Z,5.30
2023-05-16T06:52:08.678Z,5.30
2023-05-16T06:54:10.894Z,5.30
2023-05-16T06:56:12.943Z,4.97
2023-05-16T06:58:15.234Z,4.27
2023-05-16T07:00:17.851Z,4.07
2023-05-16T07:02:20.240Z,4.33
2023-05-16T07:04:22.397Z,4.67
2023-05-16T07:06:24.411Z,4.20
2023-05-16T07:08:26.512Z,4.27
2023-05-16T07:10:28.586Z,4.33
2023-05-16T07:12:31.585Z,3.90
2023-05-16T07:14:33.791Z,3.70
2023-05-16T07:16:36.024Z,3.73
2023-05-16T07:18:38.245Z,3.87
2023-05-16T07:20:40.517Z,3.60
2023-05-16T07:22:42.574Z,4.70
2023-05-16T07:24:44.674Z,3.10
2023-05-16T07:26:46.753Z,2.80
2023-05-16T07:28:50.298Z,3.13
2023-05-16T07:30:52.554Z,2.97
2023-05-16T07:32:54.775Z,2.90
2023-05-16T07:34:56.933Z,3.47
2023-05-16T07:36:58.976Z,2.40
2023-05-16T07:39:01.076Z,2.77
2023-05-16T07:41:03.127Z,3.13
2023-05-16T07:43:05.268Z,2.77
2023-05-16T07:45:07.824Z,3.00
2023-05-16T07:47:10.043Z,2.57
2023-05-16T07:49:12.156Z,2.77
2023-05-16T07:51:14.226Z,2.40
2023-05-16T07:53:16.664Z,2.63
2023-05-16T07:55:19.608Z,2.40
2023-05-16T07:57:23.220Z,2.50
2023-05-16T07:59:26.913Z,20.13
2023-05-16T08:01:29.101Z,3.40
2023-05-16T08:03:31.506Z,2.80
2023-05-16T08:05:33.884Z,3.27
2023-05-16T08:07:36.086Z,2.90
2023-05-16T08:09:38.207Z,2.90
2023-05-16T08:11:40.363Z,3.33
2023-05-16T08:13:42.537Z,3.80
2023-05-16T08:15:44.867Z,2.80
2023-05-16T08:17:47.069Z,2.80
2023-05-16T08:19:50.101Z,3.13
2023-05-16T08:21:52.218Z,2.80
2023-05-16T08:23:54.399Z,3.00
2023-05-16T08:25:56.678Z,2.90
2023-05-16T08:27:58.845Z,2.30
2023-05-16T08:30:00.952Z,2.37
2023-05-16T08:32:03.106Z,2.80
2023-05-16T08:34:06.566Z,2.40
2023-05-16T08:36:12.161Z,2.90
2023-05-16T08:38:14.285Z,2.87
2023-05-16T08:40:16.458Z,2.73
2023-05-16T08:42:18.524Z,2.57
2023-05-16T08:44:22.240Z,3.17
2023-05-16T08:46:25.119Z,3.40
2023-05-16T08:48:28.759Z,3.40
2023-05-16T08:50:32.584Z,2.93
2023-05-16T08:52:36.057Z,2.90
2023-05-16T08:54:38.422Z,2.60
2023-05-16T08:56:42.119Z,3.40
2023-05-16T08:58:44.299Z,2.40
2023-05-16T09:00:46.910Z,2.80
2023-05-16T09:02:49.020Z,2.47
2023-05-16T09:04:51.714Z,2.53
2023-05-16T09:06:54.476Z,3.30
2023-05-16T09:08:56.652Z,4.00
2023-05-16T09:10:58.713Z,2.90
2023-05-16T09:13:00.710Z,3.37
2023-05-16T09:15:05.024Z,2.97
2023-05-16T09:17:12.133Z,3.10
2023-05-16T09:19:14.845Z,2.87
2023-05-16T09:21:17.247Z,2.80
2023-05-16T09:23:24.530Z,3.00
2023-05-16T09:25:32.473Z,2.50
2023-05-16T09:27:34.916Z,3.10
2023-05-16T09:29:37.187Z,2.90
2023-05-16T09:31:39.680Z,4.30
2023-05-16T09:33:42.304Z,3.23
2023-05-16T09:35:45.732Z,3.13
2023-05-16T09:37:49.148Z,3.60
2023-05-16T09:39:53.392Z,3.03
2023-05-16T09:41:55.618Z,3.03
2023-05-16T09:43:57.890Z,2.70
2023-05-16T09:46:00.174Z,2.87
2023-05-16T09:48:05.492Z,2.80
2023-05-16T09:50:08.120Z,3.07
2023-05-16T09:52:10.386Z,2.90
2023-05-16T09:54:12.393Z,3.10
2023-05-16T09:56:15.619Z,3.30
2023-05-16T09:58:18.621Z,2.93
2023-05-16T10:00:21.094Z,6.20
2023-05-16T10:02:23.466Z,3.57
2023-05-16T10:04:25.683Z,2.70
2023-05-16T10:06:27.956Z,2.80
2023-05-16T10:08:32.366Z,2.50
2023-05-16T10:10:36.736Z,3.20
2023-05-16T10:12:39.037Z,2.97
2023-05-16T10:14:41.698Z,2.70
2023-05-16T10:16:44.698Z,2.90
2023-05-16T10:18:47.093Z,2.50
2023-05-16T10:20:52.488Z,2.20
2023-05-16T10:22:56.772Z,2.30
2023-05-16T10:25:04.708Z,2.33
2023-05-16T10:27:07.424Z,2.50
2023-05-16T10:29:10.561Z,3.00
2023-05-16T10:31:13.079Z,2.63
2023-05-16T10:33:19.811Z,2.67
2023-05-16T10:35:22.281Z,3.00
2023-05-16T10:37:24.900Z,2.67
2023-05-16T10:39:27.932Z,2.43
2023-05-16T10:41:30.371Z,3.20
2023-05-16T10:43:33.640Z,2.73
2023-05-16T10:45:41.966Z,2.47
2023-05-16T10:48:02.138Z,2.73
2023-05-16T10:50:04.603Z,2.80
2023-05-16T10:52:11.630Z,2.50
2023-05-16T10:54:15.420Z,2.57
2023-05-16T10:56:23.377Z,2.50
2023-05-16T10:58:40.906Z,3.37
2023-05-16T11:00:43.192Z,2.63
2023-05-16T11:02:45.553Z,2.33
2023-05-16T11:04:59.660Z,2.37
2023-05-16T11:07:03.641Z,2.53
2023-05-16T11:09:07.124Z,2.77
2023-05-16T11:11:46.320Z,2.47
2023-05-16T11:13:56.580Z,2.13
2023-05-16T11:16:27.071Z,2.50
2023-05-16T11:18:32.698Z,2.20
2023-05-16T11:20:39.567Z,2.63
2023-05-16T11:22:41.989Z,2.77
2023-05-16T11:24:52.301Z,3.10
2023-05-16T11:26:54.532Z,2.93
2023-05-16T11:28:58.381Z,2.10
2023-05-16T11:31:01.112Z,2.50
2023-05-16T11:33:04.345Z,2.40
2023-05-16T11:35:08.916Z,2.70
2023-05-16T11:37:12.116Z,3.43
2023-05-16T11:39:14.308Z,2.50
2023-05-16T11:41:17.859Z,2.90
2023-05-16T11:43:20.127Z,2.60
2023-05-16T11:45:25.290Z,2.00
2023-05-16T11:47:29.898Z,2.30
2023-05-16T11:49:32.252Z,2.17
2023-05-16T11:51:34.982Z,2.33
2023-05-16T11:53:38.369Z,2.40
2023-05-16T11:55:42.685Z,2.17
2023-05-16T11:57:45.369Z,2.90
2023-05-16T11:59:47.691Z,2.40
2023-05-16T12:01:50.506Z,2.13
2023-05-16T12:03:58.093Z,2.50
2023-05-16T12:06:00.983Z,2.13
2023-05-16T12:08:04.979Z,2.63
2023-05-16T12:10:10.316Z,1.87
2023-05-16T12:12:12.778Z,1.93
2023-05-16T12:14:15.234Z,2.40
2023-05-16T12:16:17.541Z,2.80
2023-05-16T12:18:21.532Z,2.60
2023-05-16T12:20:26.221Z,2.13
2023-05-16T12:22:28.556Z,2.00
2023-05-16T12:24:32.012Z,2.40
2023-05-16T12:26:34.261Z,1.70
2023-05-16T12:28:38.739Z,2.33
2023-05-16T12:30:43.181Z,1.67
2023-05-16T12:32:46.526Z,2.03
2023-05-16T12:34:53.039Z,2.00
2023-05-16T12:36:55.462Z,1.60
2023-05-16T12:39:01.782Z,2.53
2023-05-16T12:41:04.202Z,1.90
2023-05-16T12:43:23.061Z,2.03
2023-05-16T12:45:28.009Z,3.30
2023-05-16T12:47:38.402Z,2.30
2023-05-16T12:49:47.828Z,1.70
2023-05-16T12:51:52.368Z,2.03
2023-05-16T12:54:08.669Z,2.07
2023-05-16T12:56:15.487Z,2.33
2023-05-16T12:58:17.853Z,2.03
2023-05-16T13:00:21.744Z,2.73
2023-05-16T13:02:23.954Z,1.70
2023-05-16T13:04:26.298Z,2.50
2023-05-16T13:06:30.895Z,2.40
2023-05-16T13:08:41.802Z,2.40
2023-05-16T13:10:44.070Z,1.70
2023-05-16T13:12:47.403Z,2.03
2023-05-16T13:14:49.577Z,1.63
2023-05-16T13:16:51.807Z,1.50
2023-05-16T13:18:54.189Z,1.80
2023-05-16T13:20:56.904Z,2.33
2023-05-16T13:22:59.134Z,2.23
2023-05-16T13:25:01.464Z,1.80
2023-05-16T13:27:03.853Z,1.80
2023-05-16T13:29:06.000Z,1.53
2023-05-16T13:31:08.298Z,1.53
2023-05-16T13:33:10.652Z,1.80
2023-05-16T13:35:13.457Z,2.40
2023-05-16T13:37:16.080Z,2.10
2023-05-16T13:39:26.237Z,1.43
2023-05-16T13:41:28.482Z,1.60
2023-05-16T13:43:30.952Z,2.13
2023-05-16T13:45:33.667Z,1.83
2023-05-16T13:47:36.855Z,1.70
2023-05-16T13:49:39.201Z,2.03
2023-05-16T13:51:41.512Z,1.70
2023-05-16T13:53:43.711Z,1.70
2023-05-16T13:55:46.046Z,1.87
2023-05-16T13:57:48.280Z,1.87
2023-05-16T14:01:56.440Z,1.70
2023-05-16T14:03:58.703Z,1.67
2023-05-16T14:06:01.304Z,1.90
2023-05-16T14:08:03.637Z,1.97
2023-05-16T14:10:07.179Z,2.10
2023-05-16T14:12:09.713Z,2.07
2023-05-16T14:14:17.226Z,1.27
2023-05-16T14:16:19.568Z,1.80
2023-05-16T14:18:21.906Z,2.13
2023-05-16T14:20:24.622Z,1.70
2023-05-16T14:22:26.943Z,1.60
2023-05-16T14:24:29.172Z,1.60
2023-05-16T14:26:32.423Z,1.93
2023-05-16T14:28:34.601Z,1.40
2023-05-16T14:30:37.351Z,1.83
2023-05-16T14:32:40.046Z,1.87
2023-05-16T14:34:42.400Z,2.60
2023-05-16T14:36:44.728Z,1.50
2023-05-16T14:38:46.908Z,1.50
2023-05-16T14:40:49.146Z,2.57
2023-05-16T14:42:51.617Z,1.47
2023-05-16T14:44:53.766Z,1.20
2023-05-16T14:46:56.180Z,1.40
2023-05-16T14:48:58.541Z,1.50
2023-05-16T14:51:00.823Z,1.70
2023-05-16T14:53:03.558Z,2.20
2023-05-16T14:55:06.403Z,1.60
2023-05-16T14:57:09.200Z,1.60
2023-05-16T14:59:11.392Z,1.50
2023-05-16T15:01:15.234Z,1.47
2023-05-16T15:03:18.108Z,1.60
2023-05-16T15:05:20.558Z,1.93
2023-05-16T15:07:22.891Z,2.90
2023-05-16T15:09:25.138Z,1.43
2023-05-16T15:11:28.919Z,1.40
2023-05-16T15:13:31.131Z,1.33
2023-05-16T15:15:33.860Z,1.80
2023-05-16T15:17:36.051Z,1.47
2023-05-16T15:19:38.320Z,1.80
2023-05-16T15:21:41.676Z,1.37
2023-05-16T15:23:44.028Z,1.50
2023-05-16T15:25:46.373Z,2.00
2023-05-16T15:27:48.619Z,1.20
2023-05-16T15:29:50.891Z,1.50
2023-05-16T15:31:53.161Z,1.40
2023-05-16T15:33:55.409Z,1.50
2023-05-16T15:35:57.855Z,1.70
2023-05-16T15:38:00.050Z,1.30
2023-05-16T15:40:04.756Z,1.27
2023-05-16T15:42:11.153Z,1.30
2023-05-16T15:44:13.676Z,1.50
2023-05-16T15:46:16.201Z,1.27
2023-05-16T15:48:18.552Z,1.50
2023-05-16T15:50:21.025Z,1.67
2023-05-16T15:52:23.206Z,1.40
2023-05-16T15:54:25.442Z,1.40
2023-05-16T15:56:27.659Z,1.50
2023-05-16T15:58:29.903Z,1.70
2023-05-16T16:00:32.145Z,1.60
2023-05-16T16:02:34.504Z,1.37
2023-05-16T16:04:36.814Z,1.60
2023-05-16T16:06:39.042Z,1.47
2023-05-16T16:08:41.351Z,1.70
2023-05-16T16:10:43.635Z,1.40
2023-05-16T16:12:59.040Z,1.50
2023-05-16T16:15:02.405Z,1.47
2023-05-16T16:17:07.372Z,1.70
2023-05-16T16:19:09.634Z,1.67
2023-05-16T16:21:12.439Z,2.17
2023-05-16T16:23:14.734Z,1.20
2023-05-16T16:25:17.066Z,1.20
2023-05-16T16:27:19.287Z,1.20
2023-05-16T16:29:21.622Z,1.60
2023-05-16T16:31:24.554Z,1.73
2023-05-16T16:33:26.808Z,1.40
2023-05-16T16:35:29.341Z,1.40
2023-05-16T16:37:32.429Z,1.77
2023-05-16T16:39:34.580Z,1.57
2023-05-16T16:41:36.860Z,1.70
2023-05-16T16:43:40.144Z,1.47
2023-05-16T16:45:42.393Z,1.40
2023-05-16T16:47:44.811Z,1.40
2023-05-16T16:49:47.052Z,1.80
2023-05-16T16:51:50.068Z,1.40
2023-05-16T16:53:52.349Z,1.80
2023-05-16T16:55:54.617Z,1.60
2023-05-16T16:57:56.862Z,1.50
2023-05-16T16:59:59.697Z,1.87
2023-05-16T17:02:01.879Z,1.67
2023-05-16T17:04:04.492Z,1.50
2023-05-16T17:06:06.804Z,1.60
2023-05-16T17:08:09.055Z,1.80
2023-05-16T17:10:11.511Z,2.10
2023-05-16T17:12:20.383Z,1.90
2023-05-16T17:14:22.838Z,1.93
2023-05-16T17:16:29.297Z,2.00
2023-05-16T17:18:34.474Z,1.80
2023-05-16T17:20:37.247Z,1.63
2023-05-16T17:22:39.839Z,1.57
2023-05-16T17:24:42.231Z,1.83
2023-05-16T17:26:44.499Z,1.87
2023-05-16T17:28:46.735Z,1.90
2023-05-16T17:30:48.901Z,1.67
2023-05-16T17:32:51.207Z,1.83
2023-05-16T17:34:55.175Z,2.00
2023-05-16T17:36:57.431Z,1.70
2023-05-16T17:38:59.684Z,1.50
2023-05-16T17:41:02.649Z,1.40
2023-05-16T17:43:05.702Z,1.67
2023-05-16T17:45:08.785Z,2.07
2023-05-16T17:47:11.462Z,1.63
2023-05-16T17:49:14.166Z,1.43
2023-05-16T17:51:16.411Z,1.60
2023-05-16T17:53:18.684Z,1.23
2023-05-16T17:55:23.142Z,1.87
2023-05-16T17:57:25.377Z,1.53
2023-05-16T17:59:27.572Z,1.40
2023-05-16T18:01:29.816Z,2.00
2023-05-16T18:03:32.142Z,1.50
2023-05-16T18:05:34.461Z,1.83
2023-05-16T18:07:36.776Z,2.13
2023-05-16T18:09:39.598Z,1.87
2023-05-16T18:11:42.114Z,1.97
2023-05-16T18:13:44.657Z,2.27
2023-05-16T18:15:46.859Z,2.23
2023-05-16T18:17:49.556Z,1.87
2023-05-16T18:19:52.553Z,2.03
2023-05-16T18:21:55.012Z,1.97
2023-05-16T18:23:59.537Z,1.77
2023-05-16T18:26:03.636Z,1.90
2023-05-16T18:28:05.890Z,2.00
2023-05-16T18:30:08.678Z,1.53
2023-05-16T18:32:10.914Z,2.10
2023-05-16T18:34:13.227Z,1.63
2023-05-16T18:36:15.706Z,1.63
2023-05-16T18:38:31.255Z,1.53
2023-05-16T18:40:34.752Z,1.83
2023-05-16T18:42:36.942Z,1.90
2023-05-16T18:44:39.221Z,1.73
2023-05-16T18:46:41.566Z,2.30
2023-05-16T18:48:43.846Z,1.80
2023-05-16T18:50:46.099Z,1.87
2023-05-16T18:52:48.753Z,1.80
2023-05-16T18:54:51.003Z,1.83
2023-05-16T18:56:53.311Z,1.90
2023-05-16T18:58:55.711Z,1.70
2023-05-16T19:00:58.067Z,1.67
2023-05-16T19:03:00.362Z,1.90
2023-05-16T19:05:02.933Z,2.10
2023-05-16T19:07:06.653Z,1.60
2023-05-16T19:09:10.759Z,1.50
2023-05-16T19:11:13.034Z,1.80
2023-05-16T19:13:15.340Z,1.80
2023-05-16T19:15:17.683Z,2.03
2023-05-16T19:17:19.942Z,2.10
2023-05-16T19:19:22.345Z,1.80
2023-05-16T19:21:24.661Z,2.20
2023-05-16T19:23:26.861Z,2.07
2023-05-16T19:25:29.133Z,1.70
2023-05-16T19:27:31.467Z,1.40
2023-05-16T19:29:33.779Z,1.60
2023-05-16T19:31:36.242Z,1.40
2023-05-16T19:33:38.454Z,2.00
2023-05-16T19:35:40.914Z,1.80
2023-05-16T19:37:43.071Z,2.50
2023-05-16T19:39:45.387Z,1.90
2023-05-16T19:41:51.606Z,2.20
2023-05-16T19:43:54.636Z,2.00
2023-05-16T19:45:56.868Z,1.73
2023-05-16T19:47:59.312Z,1.67
2023-05-16T19:50:02.323Z,1.70
2023-05-16T19:52:08.228Z,1.87
2023-05-16T19:54:10.482Z,1.93
2023-05-16T19:56:12.866Z,1.80
2023-05-16T19:58:16.184Z,2.00
2023-05-16T20:00:18.881Z,1.80
2023-05-16T20:02:23.539Z,1.70
2023-05-16T20:04:27.090Z,1.50
2023-05-16T20:06:29.453Z,1.80
2023-05-16T20:08:31.704Z,2.17
2023-05-16T20:10:35.259Z,1.60
2023-05-16T20:12:37.644Z,1.70
2023-05-16T20:14:40.022Z,1.90
2023-05-16T20:16:42.969Z,1.83
2023-05-16T20:18:46.736Z,2.00
2023-05-16T20:20:49.064Z,2.00
2023-05-16T20:22:51.276Z,1.80
2023-05-16T20:24:53.500Z,1.70
2023-05-16T20:26:55.839Z,1.60
2023-05-16T20:28:57.986Z,1.90
2023-05-16T20:31:00.195Z,1.90
2023-05-16T20:33:02.409Z,2.17
2023-05-16T20:35:08.994Z,1.60
2023-05-16T20:37:11.399Z,2.13
2023-05-16T20:39:13.596Z,1.70
2023-05-16T20:41:16.014Z,2.27
2023-05-16T20:43:18.316Z,1.60
2023-05-16T20:45:23.168Z,2.10
2023-05-16T20:47:25.452Z,1.93
2023-05-16T20:49:27.686Z,2.20
2023-05-16T20:51:30.987Z,1.90
2023-05-16T20:53:33.340Z,1.90
2023-05-16T20:55:35.581Z,1.80
2023-05-16T20:57:37.832Z,2.03
2023-05-16T20:59:40.066Z,2.13
2023-05-16T21:01:42.646Z,3.17
2023-05-16T21:03:44.894Z,2.27
2023-05-16T21:05:47.151Z,2.70
2023-05-16T21:07:49.524Z,2.00
2023-05-16T21:09:51.762Z,2.20
2023-05-16T21:11:54.081Z,2.20
2023-05-16T21:13:56.295Z,2.00
2023-05-16T21:15:58.505Z,2.10
2023-05-16T21:18:00.839Z,2.10
2023-05-16T21:20:03.724Z,2.10
2023-05-16T21:22:06.166Z,1.90
2023-05-16T21:24:08.384Z,2.20
2023-05-16T21:26:11.224Z,2.07
2023-05-16T21:28:13.484Z,2.07
2023-05-16T21:30:15.753Z,2.10
2023-05-16T21:32:17.926Z,2.37
2023-05-16T21:34:20.166Z,2.23
2023-05-16T21:36:22.426Z,2.00
2023-05-16T21:38:24.661Z,2.40
2023-05-16T21:40:28.814Z,2.00
2023-05-16T21:42:31.144Z,1.80
2023-05-16T21:44:33.380Z,2.50
2023-05-16T21:46:35.695Z,2.33
2023-05-16T21:48:38.050Z,2.80
2023-05-16T21:50:40.308Z,2.10
2023-05-16T21:52:42.643Z,2.50
2023-05-16T21:54:44.896Z,1.90
2023-05-16T21:56:47.203Z,2.20
2023-05-16T21:58:49.426Z,2.10
2023-05-16T22:00:51.596Z,1.90
2023-05-16T22:02:53.968Z,1.70
2023-05-16T22:04:56.225Z,1.70
2023-05-16T22:06:58.454Z,2.40
2023-05-16T22:09:01.710Z,1.60
2023-05-16T22:11:04.406Z,2.23
2023-05-16T22:13:08.118Z,2.70
2023-05-16T22:15:10.820Z,2.17
2023-05-16T22:17:13.020Z,2.23
2023-05-16T22:19:15.215Z,2.30
2023-05-16T22:21:17.512Z,2.90
2023-05-16T22:23:19.717Z,2.30
2023-05-16T22:25:22.017Z,2.07
2023-05-16T22:27:24.235Z,2.50
2023-05-16T22:29:26.551Z,2.17
2023-05-16T22:31:28.685Z,2.27
2023-05-16T22:33:30.853Z,2.30
2023-05-16T22:35:32.980Z,2.30
2023-05-16T22:37:35.022Z,2.60
2023-05-16T22:39:37.031Z,2.37
2023-05-16T22:41:39.177Z,2.27
2023-05-16T22:43:41.513Z,2.33
2023-05-16T22:45:43.625Z,2.60
2023-05-16T22:47:45.768Z,2.43
2023-05-16T22:49:47.949Z,2.70
2023-05-16T22:51:50.368Z,2.13
2023-05-16T22:53:52.471Z,3.33
2023-05-16T22:55:54.802Z,2.77
2023-05-16T22:57:59.797Z,2.90
2023-05-16T23:00:02.351Z,2.30
2023-05-16T23:02:04.843Z,2.23
2023-05-16T23:04:07.037Z,2.80
2023-05-16T23:06:09.758Z,2.57
2023-05-16T23:08:12.225Z,2.60
2023-05-16T23:10:14.340Z,3.27
2023-05-16T23:12:16.472Z,3.13
2023-05-16T23:14:18.477Z,2.80
2023-05-16T23:16:20.521Z,2.73
2023-05-16T23:18:22.554Z,3.27
2023-05-16T23:20:24.829Z,2.83
2023-05-16T23:22:26.949Z,2.67
2023-05-16T23:24:29.115Z,4.73
2023-05-16T23:26:31.644Z,2.50
2023-05-16T23:28:33.752Z,2.30
2023-05-16T23:30:35.784Z,3.40
2023-05-16T23:32:37.827Z,2.70
2023-05-16T23:34:39.898Z,2.47
2023-05-16T23:36:42.126Z,2.23
2023-05-16T23:38:44.236Z,2.33
2023-05-16T23:40:46.268Z,2.70
2023-05-16T23:42:48.485Z,2.70
2023-05-16T23:44:50.726Z,2.60
2023-05-16T23:46:52.700Z,2.60
2023-05-16T23:48:57.293Z,2.93
2023-05-16T23:50:59.520Z,2.60
2023-05-16T23:53:01.720Z,2.80
2023-05-16T23:55:04.057Z,2.90
2023-05-16T23:57:06.308Z,2.73
2023-05-16T23:59:09.275Z,2.30
